sensor_id;sensor_type;location;lat;lon;timestamp;P1;durP1;ratioP1;P2;durP2;ratioP2
77280;SDS011;66339;47.262;17.144;2023-04-01T00:01:19;4.97;;;1.48;;
77280;SDS011;66339;47.262;17.144;2023-04-01T00:03:53;3.15;;;1.40;;
77280;SDS011;66339;47.262;17.144;2023-04-01T00:06:27;2.42;;;1.40;;
77280;SDS011;66339;47.262;17.144;2023-04-01T00:09:08;3.42;;;1.40;;
77280;SDS011;66339;47.262;17.144;2023-04-01T00:11:41;3.05;;;1.50;;
77280;SDS011;66339;47.262;17.144;2023-04-01T00:16:45;4.12;;;1.45;;
77280;SDS011;66339;47.262;17.144;2023-04-01T00:19:13;3.35;;;1.45;;
77280;SDS011;66339;47.262;17.144;2023-04-01T00:21:47;3.60;;;1.60;;
77280;SDS011;66339;47.262;17.144;2023-04-01T00:24:27;2.95;;;1.23;;
77280;SDS011;66339;47.262;17.144;2023-04-01T00:26:57;3.78;;;1.48;;
77280;SDS011;66339;47.262;17.144;2023-04-01T00:29:25;3.40;;;1.42;;
77280;SDS011;66339;47.262;17.144;2023-04-01T00:31:58;4.03;;;1.65;;
77280;SDS011;66339;47.262;17.144;2023-04-01T00:34:28;2.70;;;1.27;;
77280;SDS011;66339;47.262;17.144;2023-04-01T00:36:59;2.58;;;1.40;;
77280;SDS011;66339;47.262;17.144;2023-04-01T00:39:30;3.60;;;1.37;;
77280;SDS011;66339;47.262;17.144;2023-04-01T00:41:57;4.15;;;1.50;;
77280;SDS011;66339;47.262;17.144;2023-04-01T00:44:40;2.47;;;1.02;;
77280;SDS011;66339;47.262;17.144;2023-04-01T00:47:08;3.08;;;1.52;;
77280;SDS011;66339;47.262;17.144;2023-04-01T00:49:39;2.65;;;1.40;;
77280;SDS011;66339;47.262;17.144;2023-04-01T00:52:13;3.20;;;1.30;;
77280;SDS011;66339;47.262;17.144;2023-04-01T00:54:47;4.07;;;1.35;;
77280;SDS011;66339;47.262;17.144;2023-04-01T00:57:28;1.92;;;1.20;;
77280;SDS011;66339;47.262;17.144;2023-04-01T01:00:04;3.70;;;1.40;;
77280;SDS011;66339;47.262;17.144;2023-04-01T01:02:36;2.37;;;1.40;;
77280;SDS011;66339;47.262;17.144;2023-04-01T01:05:04;1.98;;;1.30;;
77280;SDS011;66339;47.262;17.144;2023-04-01T01:07:41;2.90;;;1.23;;
77280;SDS011;66339;47.262;17.144;2023-04-01T01:10:23;2.15;;;1.30;;
77280;SDS011;66339;47.262;17.144;2023-04-01T01:16:04;3.58;;;1.35;;
77280;SDS011;66339;47.262;17.144;2023-04-01T01:18:49;2.42;;;1.37;;
77280;SDS011;66339;47.262;17.144;2023-04-01T01:27:11;2.72;;;1.20;;
77280;SDS011;66339;47.262;17.144;2023-04-01T01:37:49;2.50;;;1.10;;
77280;SDS011;66339;47.262;17.144;2023-04-01T01:40:29;2.97;;;1.42;;
77280;SDS011;66339;47.262;17.144;2023-04-01T01:43:05;2.25;;;1.20;;
77280;SDS011;66339;47.262;17.144;2023-04-01T01:45:48;1.73;;;1.10;;
77280;SDS011;66339;47.262;17.144;2023-04-01T01:48:23;3.35;;;1.30;;
77280;SDS011;66339;47.262;17.144;2023-04-01T01:50:59;1.33;;;0.98;;
77280;SDS011;66339;47.262;17.144;2023-04-01T01:53:27;4.93;;;1.20;;
77280;SDS011;66339;47.262;17.144;2023-04-01T01:56:00;3.53;;;1.30;;
77280;SDS011;66339;47.262;17.144;2023-04-01T01:58:39;1.60;;;1.12;;
77280;SDS011;66339;47.262;17.144;2023-04-01T02:01:26;1.62;;;1.02;;
77280;SDS011;66339;47.262;17.144;2023-04-01T02:03:56;1.67;;;1.12;;
77280;SDS011;66339;47.262;17.144;2023-04-01T02:06:30;3.35;;;1.35;;
77280;SDS011;66339;47.262;17.144;2023-04-01T02:09:06;1.70;;;1.08;;
77280;SDS011;66339;47.262;17.144;2023-04-01T02:12:14;1.90;;;1.23;;
77280;SDS011;66339;47.262;17.144;2023-04-01T02:17:20;2.70;;;1.10;;
77280;SDS011;66339;47.262;17.144;2023-04-01T02:22:43;2.75;;;1.50;;
77280;SDS011;66339;47.262;17.144;2023-04-01T02:25:33;1.55;;;1.10;;
77280;SDS011;66339;47.262;17.144;2023-04-01T02:28:04;1.95;;;0.93;;
77280;SDS011;66339;47.262;17.144;2023-04-01T02:30:34;3.42;;;1.10;;
77280;SDS011;66339;47.262;17.144;2023-04-01T02:33:13;2.00;;;1.10;;
77280;SDS011;66339;47.262;17.144;2023-04-01T02:35:44;2.53;;;1.08;;
77280;SDS011;66339;47.262;17.144;2023-04-01T02:38:17;1.70;;;0.95;;
77280;SDS011;66339;47.262;17.144;2023-04-01T02:40:56;2.35;;;1.10;;
77280;SDS011;66339;47.262;17.144;2023-04-01T02:43:29;1.55;;;0.90;;
77280;SDS011;66339;47.262;17.144;2023-04-01T02:45:57;1.98;;;1.05;;
77280;SDS011;66339;47.262;17.144;2023-04-01T02:48:28;1.40;;;1.00;;
77280;SDS011;66339;47.262;17.144;2023-04-01T02:50:56;2.15;;;1.00;;
77280;SDS011;66339;47.262;17.144;2023-04-01T02:53:27;1.92;;;1.00;;
77280;SDS011;66339;47.262;17.144;2023-04-01T02:56:01;1.95;;;1.15;;
77280;SDS011;66339;47.262;17.144;2023-04-01T02:58:33;2.50;;;1.20;;
77280;SDS011;66339;47.262;17.144;2023-04-01T03:01:12;1.87;;;0.88;;
77280;SDS011;66339;47.262;17.144;2023-04-01T03:03:43;1.83;;;1.02;;
77280;SDS011;66339;47.262;17.144;2023-04-01T03:06:15;2.95;;;1.80;;
77280;SDS011;66339;47.262;17.144;2023-04-01T03:08:46;2.25;;;1.15;;
77280;SDS011;66339;47.262;17.144;2023-04-01T03:11:16;2.45;;;1.15;;
77280;SDS011;66339;47.262;17.144;2023-04-01T03:13:50;2.70;;;1.00;;
77280;SDS011;66339;47.262;17.144;2023-04-01T03:16:23;1.55;;;1.10;;
77280;SDS011;66339;47.262;17.144;2023-04-01T03:18:56;2.60;;;1.15;;
77280;SDS011;66339;47.262;17.144;2023-04-01T03:21:30;1.73;;;1.30;;
77280;SDS011;66339;47.262;17.144;2023-04-01T03:23:57;1.55;;;1.02;;
77280;SDS011;66339;47.262;17.144;2023-04-01T03:26:38;2.03;;;1.20;;
77280;SDS011;66339;47.262;17.144;2023-04-01T03:29:08;2.25;;;1.10;;
77280;SDS011;66339;47.262;17.144;2023-04-01T03:31:39;1.27;;;1.00;;
77280;SDS011;66339;47.262;17.144;2023-04-01T03:34:09;2.83;;;1.02;;
77280;SDS011;66339;47.262;17.144;2023-04-01T03:36:39;1.80;;;1.12;;
77280;SDS011;66339;47.262;17.144;2023-04-01T03:39:12;1.20;;;0.90;;
77280;SDS011;66339;47.262;17.144;2023-04-01T03:41:39;2.25;;;0.80;;
77280;SDS011;66339;47.262;17.144;2023-04-01T03:44:19;1.00;;;0.90;;
77280;SDS011;66339;47.262;17.144;2023-04-01T03:46:47;1.58;;;0.82;;
77280;SDS011;66339;47.262;17.144;2023-04-01T03:49:16;1.35;;;0.80;;
77280;SDS011;66339;47.262;17.144;2023-04-01T03:51:44;1.95;;;1.02;;
77280;SDS011;66339;47.262;17.144;2023-04-01T03:54:12;2.00;;;1.08;;
77280;SDS011;66339;47.262;17.144;2023-04-01T03:56:44;1.73;;;1.00;;
77280;SDS011;66339;47.262;17.144;2023-04-01T03:59:18;3.37;;;1.30;;
77280;SDS011;66339;47.262;17.144;2023-04-01T04:01:48;1.42;;;0.90;;
77280;SDS011;66339;47.262;17.144;2023-04-01T04:04:22;1.17;;;0.80;;
77280;SDS011;66339;47.262;17.144;2023-04-01T04:06:55;1.15;;;1.00;;
77280;SDS011;66339;47.262;17.144;2023-04-01T04:09:23;2.40;;;0.93;;
77280;SDS011;66339;47.262;17.144;2023-04-01T04:12:01;1.02;;;0.80;;
77280;SDS011;66339;47.262;17.144;2023-04-01T04:14:34;1.30;;;0.93;;
77280;SDS011;66339;47.262;17.144;2023-04-01T04:17:09;1.35;;;1.00;;
77280;SDS011;66339;47.262;17.144;2023-04-01T04:19:43;1.15;;;0.90;;
77280;SDS011;66339;47.262;17.144;2023-04-01T04:22:13;1.00;;;0.90;;
77280;SDS011;66339;47.262;17.144;2023-04-01T04:24:45;2.37;;;1.20;;
77280;SDS011;66339;47.262;17.144;2023-04-01T04:27:19;1.85;;;0.90;;
77280;SDS011;66339;47.262;17.144;2023-04-01T04:29:50;2.45;;;1.08;;
77280;SDS011;66339;47.262;17.144;2023-04-01T04:32:20;2.80;;;0.80;;
77280;SDS011;66339;47.262;17.144;2023-04-01T04:34:54;1.23;;;0.98;;
77280;SDS011;66339;47.262;17.144;2023-04-01T04:37:25;1.30;;;0.80;;
77280;SDS011;66339;47.262;17.144;2023-04-01T04:39:53;1.50;;;1.00;;
77280;SDS011;66339;47.262;17.144;2023-04-01T04:42:21;2.08;;;1.30;;
77280;SDS011;66339;47.262;17.144;2023-04-01T04:44:51;1.37;;;0.98;;
77280;SDS011;66339;47.262;17.144;2023-04-01T04:47:25;1.55;;;1.10;;
77280;SDS011;66339;47.262;17.144;2023-04-01T04:49:59;1.65;;;1.00;;
77280;SDS011;66339;47.262;17.144;2023-04-01T04:52:29;1.23;;;0.93;;
77280;SDS011;66339;47.262;17.144;2023-04-01T04:55:00;2.05;;;1.10;;
77280;SDS011;66339;47.262;17.144;2023-04-01T04:57:36;1.30;;;0.90;;
77280;SDS011;66339;47.262;17.144;2023-04-01T05:00:10;2.12;;;1.00;;
77280;SDS011;66339;47.262;17.144;2023-04-01T05:02:41;1.27;;;0.80;;
77280;SDS011;66339;47.262;17.144;2023-04-01T05:05:11;3.72;;;1.25;;
77280;SDS011;66339;47.262;17.144;2023-04-01T05:07:40;2.03;;;1.10;;
77280;SDS011;66339;47.262;17.144;2023-04-01T05:10:10;2.75;;;0.93;;
77280;SDS011;66339;47.262;17.144;2023-04-01T05:12:38;2.33;;;0.90;;
77280;SDS011;66339;47.262;17.144;2023-04-01T05:15:06;2.25;;;1.10;;
77280;SDS011;66339;47.262;17.144;2023-04-01T05:17:39;2.10;;;0.98;;
77280;SDS011;66339;47.262;17.144;2023-04-01T05:20:07;1.50;;;0.98;;
77280;SDS011;66339;47.262;17.144;2023-04-01T05:22:39;1.23;;;1.00;;
77280;SDS011;66339;47.262;17.144;2023-04-01T05:25:10;1.20;;;1.00;;
77280;SDS011;66339;47.262;17.144;2023-04-01T05:27:46;1.55;;;0.90;;
77280;SDS011;66339;47.262;17.144;2023-04-01T05:30:22;1.75;;;0.98;;
77280;SDS011;66339;47.262;17.144;2023-04-01T05:32:53;1.45;;;0.93;;
77280;SDS011;66339;47.262;17.144;2023-04-01T05:35:24;1.55;;;1.20;;
77280;SDS011;66339;47.262;17.144;2023-04-01T05:37:52;1.30;;;0.70;;
77280;SDS011;66339;47.262;17.144;2023-04-01T05:40:20;1.05;;;0.95;;
77280;SDS011;66339;47.262;17.144;2023-04-01T05:42:48;1.60;;;1.10;;
77280;SDS011;66339;47.262;17.144;2023-04-01T05:45:19;1.67;;;0.90;;
77280;SDS011;66339;47.262;17.144;2023-04-01T05:47:46;1.67;;;1.10;;
77280;SDS011;66339;47.262;17.144;2023-04-01T05:50:16;2.75;;;1.10;;
77280;SDS011;66339;47.262;17.144;2023-04-01T05:52:47;1.02;;;0.80;;
77280;SDS011;66339;47.262;17.144;2023-04-01T05:55:18;2.58;;;1.00;;
77280;SDS011;66339;47.262;17.144;2023-04-01T05:57:52;1.23;;;0.80;;
77280;SDS011;66339;47.262;17.144;2023-04-01T06:00:20;3.00;;;1.05;;
77280;SDS011;66339;47.262;17.144;2023-04-01T06:02:47;1.37;;;0.80;;
77280;SDS011;66339;47.262;17.144;2023-04-01T06:05:22;2.30;;;1.10;;
77280;SDS011;66339;47.262;17.144;2023-04-01T06:08:10;1.98;;;0.80;;
77280;SDS011;66339;47.262;17.144;2023-04-01T06:10:57;9.05;;;1.15;;
77280;SDS011;66339;47.262;17.144;2023-04-01T06:16:49;2.15;;;0.90;;
77280;SDS011;66339;47.262;17.144;2023-04-01T06:28:07;5.65;;;0.90;;
77280;SDS011;66339;47.262;17.144;2023-04-01T06:33:43;4.50;;;1.62;;
77280;SDS011;66339;47.262;17.144;2023-04-01T06:39:23;5.50;;;1.33;;
77280;SDS011;66339;47.262;17.144;2023-04-01T06:53:59;378.27;;;44.72;;
77280;SDS011;66339;47.262;17.144;2023-04-01T06:56:48;349.15;;;42.22;;
77280;SDS011;66339;47.262;17.144;2023-04-01T06:59:34;294.42;;;34.08;;
77280;SDS011;66339;47.262;17.144;2023-04-01T07:02:16;282.37;;;33.97;;
77280;SDS011;66339;47.262;17.144;2023-04-01T07:05:10;300.15;;;33.05;;
77280;SDS011;66339;47.262;17.144;2023-04-01T07:07:43;301.67;;;36.78;;
77280;SDS011;66339;47.262;17.144;2023-04-01T07:10:20;245.63;;;29.45;;
77280;SDS011;66339;47.262;17.144;2023-04-01T07:13:10;189.35;;;23.08;;
77280;SDS011;66339;47.262;17.144;2023-04-01T07:21:16;204.35;;;25.08;;
77280;SDS011;66339;47.262;17.144;2023-04-01T07:24:33;215.12;;;26.73;;
77280;SDS011;66339;47.262;17.144;2023-04-01T07:27:04;192.83;;;25.77;;
77280;SDS011;66339;47.262;17.144;2023-04-01T07:29:39;256.23;;;31.83;;
77280;SDS011;66339;47.262;17.144;2023-04-01T07:40:39;944.85;;;141.77;;
77280;SDS011;66339;47.262;17.144;2023-04-01T07:46:14;604.38;;;92.62;;
77280;SDS011;66339;47.262;17.144;2023-04-01T07:49:08;587.35;;;86.60;;
77280;SDS011;66339;47.262;17.144;2023-04-01T07:54:22;613.03;;;84.13;;
77280;SDS011;66339;47.262;17.144;2023-04-01T07:57:05;580.28;;;83.47;;
77280;SDS011;66339;47.262;17.144;2023-04-01T08:03:02;578.70;;;82.12;;
77280;SDS011;66339;47.262;17.144;2023-04-01T08:05:52;552.62;;;77.62;;
77280;SDS011;66339;47.262;17.144;2023-04-01T08:08:45;555.90;;;83.20;;
77280;SDS011;66339;47.262;17.144;2023-04-01T08:11:36;559.03;;;78.78;;
77280;SDS011;66339;47.262;17.144;2023-04-01T08:14:18;526.13;;;73.82;;
77280;SDS011;66339;47.262;17.144;2023-04-01T08:17:23;692.42;;;108.72;;
77280;SDS011;66339;47.262;17.144;2023-04-01T08:20:21;639.17;;;103.70;;
77280;SDS011;66339;47.262;17.144;2023-04-01T08:25:40;500.45;;;70.65;;
77280;SDS011;66339;47.262;17.144;2023-04-01T08:28:26;484.17;;;70.37;;
77280;SDS011;66339;47.262;17.144;2023-04-01T08:31:04;454.75;;;63.38;;
77280;SDS011;66339;47.262;17.144;2023-04-01T08:33:39;392.52;;;54.45;;
77280;SDS011;66339;47.262;17.144;2023-04-01T08:39:06;433.95;;;61.83;;
77280;SDS011;66339;47.262;17.144;2023-04-01T08:47:33;430.27;;;59.05;;
77280;SDS011;66339;47.262;17.144;2023-04-01T09:07:40;396.05;;;56.05;;
77280;SDS011;66339;47.262;17.144;2023-04-01T09:15:47;366.02;;;50.83;;
77280;SDS011;66339;47.262;17.144;2023-04-01T09:21:07;357.42;;;49.33;;
77280;SDS011;66339;47.262;17.144;2023-04-01T09:45:14;314.10;;;43.03;;
77280;SDS011;66339;47.262;17.144;2023-04-01T09:48:02;307.83;;;43.95;;
77280;SDS011;66339;47.262;17.144;2023-04-01T09:50:49;301.40;;;43.87;;
77280;SDS011;66339;47.262;17.144;2023-04-01T09:53:48;296.10;;;42.78;;
77280;SDS011;66339;47.262;17.144;2023-04-01T10:06:09;277.58;;;41.58;;
77280;SDS011;66339;47.262;17.144;2023-04-01T10:15:18;279.50;;;39.50;;
77280;SDS011;66339;47.262;17.144;2023-04-01T10:18:22;296.55;;;46.55;;
77280;SDS011;66339;47.262;17.144;2023-04-01T10:21:05;314.65;;;47.90;;
77280;SDS011;66339;47.262;17.144;2023-04-01T10:23:55;282.05;;;43.50;;
77280;SDS011;66339;47.262;17.144;2023-04-01T10:32:27;280.95;;;39.13;;
77280;SDS011;66339;47.262;17.144;2023-04-01T10:40:53;230.80;;;35.53;;
77280;SDS011;66339;47.262;17.144;2023-04-01T10:55:06;179.77;;;28.08;;
77280;SDS011;66339;47.262;17.144;2023-04-01T10:58:10;201.23;;;29.37;;
77280;SDS011;66339;47.262;17.144;2023-04-01T11:01:04;179.57;;;28.23;;
77280;SDS011;66339;47.262;17.144;2023-04-01T11:26:52;130.18;;;20.70;;
77280;SDS011;66339;47.262;17.144;2023-04-01T11:32:39;131.15;;;22.37;;
77280;SDS011;66339;47.262;17.144;2023-04-01T11:49:36;187.07;;;30.80;;
77280;SDS011;66339;47.262;17.144;2023-04-01T11:57:28;136.15;;;23.83;;
77280;SDS011;66339;47.262;17.144;2023-04-01T12:08:45;123.72;;;20.15;;
77280;SDS011;66339;47.262;17.144;2023-04-01T12:11:41;136.27;;;22.55;;
77280;SDS011;66339;47.262;17.144;2023-04-01T12:20:27;87.25;;;17.48;;
77280;SDS011;66339;47.262;17.144;2023-04-01T12:22:53;91.95;;;17.58;;
77280;SDS011;66339;47.262;17.144;2023-04-01T12:25:46;102.45;;;16.50;;
77280;SDS011;66339;47.262;17.144;2023-04-01T12:31:37;81.35;;;15.52;;
77280;SDS011;66339;47.262;17.144;2023-04-01T12:34:22;82.20;;;14.77;;
77280;SDS011;66339;47.262;17.144;2023-04-01T12:37:17;82.62;;;16.67;;
77280;SDS011;66339;47.262;17.144;2023-04-01T12:51:40;76.18;;;13.45;;
77280;SDS011;66339;47.262;17.144;2023-04-01T12:57:01;61.05;;;11.70;;
77280;SDS011;66339;47.262;17.144;2023-04-01T13:05:37;60.25;;;11.95;;
77280;SDS011;66339;47.262;17.144;2023-04-01T13:08:31;55.90;;;11.50;;
77280;SDS011;66339;47.262;17.144;2023-04-01T13:20:35;54.38;;;9.90;;
77280;SDS011;66339;47.262;17.144;2023-04-01T13:28:46;58.63;;;11.20;;
77280;SDS011;66339;47.262;17.144;2023-04-01T13:56:34;49.22;;;9.75;;
77280;SDS011;66339;47.262;17.144;2023-04-01T14:02:34;39.80;;;9.57;;
77280;SDS011;66339;47.262;17.144;2023-04-01T14:13:25;38.22;;;9.30;;
77280;SDS011;66339;47.262;17.144;2023-04-01T14:24:45;33.75;;;7.30;;
77280;SDS011;66339;47.262;17.144;2023-04-01T14:30:13;52.30;;;11.38;;
77280;SDS011;66339;47.262;17.144;2023-04-01T14:47:06;38.72;;;9.10;;
77280;SDS011;66339;47.262;17.144;2023-04-01T14:49:47;36.90;;;8.73;;
77280;SDS011;66339;47.262;17.144;2023-04-01T14:52:28;38.60;;;8.15;;
77280;SDS011;66339;47.262;17.144;2023-04-01T14:54:59;39.13;;;8.98;;
77280;SDS011;66339;47.262;17.144;2023-04-01T14:57:29;46.17;;;9.85;;
77280;SDS011;66339;47.262;17.144;2023-04-01T15:02:46;38.25;;;9.23;;
77280;SDS011;66339;47.262;17.144;2023-04-01T15:08:29;42.40;;;8.65;;
77280;SDS011;66339;47.262;17.144;2023-04-01T15:31:48;30.05;;;7.20;;
77280;SDS011;66339;47.262;17.144;2023-04-01T15:34:34;31.00;;;7.18;;
77280;SDS011;66339;47.262;17.144;2023-04-01T15:40:08;35.65;;;7.40;;
77280;SDS011;66339;47.262;17.144;2023-04-01T15:42:57;37.30;;;9.20;;
77280;SDS011;66339;47.262;17.144;2023-04-01T15:48:24;37.97;;;8.32;;
77280;SDS011;66339;47.262;17.144;2023-04-01T15:51:31;33.90;;;8.23;;
77280;SDS011;66339;47.262;17.144;2023-04-01T15:57:31;26.92;;;6.32;;
77280;SDS011;66339;47.262;17.144;2023-04-01T16:01:02;29.77;;;7.45;;
77280;SDS011;66339;47.262;17.144;2023-04-01T16:06:24;32.10;;;7.90;;
77280;SDS011;66339;47.262;17.144;2023-04-01T16:18:20;30.75;;;7.62;;
77280;SDS011;66339;47.262;17.144;2023-04-01T16:20:23;23.60;;;6.30;;
77280;SDS011;66339;47.262;17.144;2023-04-01T16:23:20;31.33;;;7.70;;
77280;SDS011;66339;47.262;17.144;2023-04-01T16:28:43;23.95;;;6.28;;
77280;SDS011;66339;47.262;17.144;2023-04-01T16:34:16;32.28;;;6.80;;
77280;SDS011;66339;47.262;17.144;2023-04-01T16:36:52;35.08;;;6.10;;
77280;SDS011;66339;47.262;17.144;2023-04-01T16:42:20;24.02;;;6.05;;
77280;SDS011;66339;47.262;17.144;2023-04-01T16:45:15;28.95;;;5.70;;
77280;SDS011;66339;47.262;17.144;2023-04-01T16:48:21;23.33;;;7.18;;
77280;SDS011;66339;47.262;17.144;2023-04-01T16:51:19;27.95;;;6.80;;
77280;SDS011;66339;47.262;17.144;2023-04-01T16:53:53;25.52;;;6.28;;
77280;SDS011;66339;47.262;17.144;2023-04-01T16:56:49;23.40;;;5.82;;
77280;SDS011;66339;47.262;17.144;2023-04-01T17:00:14;23.10;;;5.80;;
77280;SDS011;66339;47.262;17.144;2023-04-01T17:07:46;28.27;;;5.80;;
77280;SDS011;66339;47.262;17.144;2023-04-01T17:16:14;20.83;;;5.20;;
77280;SDS011;66339;47.262;17.144;2023-04-01T17:19:08;26.02;;;6.32;;
77280;SDS011;66339;47.262;17.144;2023-04-01T17:21:56;25.62;;;5.40;;
77280;SDS011;66339;47.262;17.144;2023-04-01T17:31:23;25.62;;;5.97;;
77280;SDS011;66339;47.262;17.144;2023-04-01T17:52:24;19.67;;;5.45;;
77280;SDS011;66339;47.262;17.144;2023-04-01T17:58:40;22.00;;;4.95;;
77280;SDS011;66339;47.262;17.144;2023-04-01T18:04:55;21.40;;;4.70;;
77280;SDS011;66339;47.262;17.144;2023-04-01T18:10:48;19.48;;;4.75;;
77280;SDS011;66339;47.262;17.144;2023-04-01T18:13:55;17.12;;;5.10;;
77280;SDS011;66339;47.262;17.144;2023-04-01T18:20:02;15.90;;;4.70;;
77280;SDS011;66339;47.262;17.144;2023-04-01T18:23:03;18.67;;;4.80;;
77280;SDS011;66339;47.262;17.144;2023-04-01T18:25:44;19.95;;;5.00;;
77280;SDS011;66339;47.262;17.144;2023-04-01T18:28:22;21.20;;;5.75;;
77280;SDS011;66339;47.262;17.144;2023-04-01T18:31:18;21.45;;;4.75;;
77280;SDS011;66339;47.262;17.144;2023-04-01T18:34:07;19.62;;;5.32;;
77280;SDS011;66339;47.262;17.144;2023-04-01T18:36:49;12.93;;;4.12;;
77280;SDS011;66339;47.262;17.144;2023-04-01T18:39:32;19.83;;;4.37;;
77280;SDS011;66339;47.262;17.144;2023-04-01T18:45:22;15.32;;;4.40;;
77280;SDS011;66339;47.262;17.144;2023-04-01T18:51:17;11.05;;;3.47;;
77280;SDS011;66339;47.262;17.144;2023-04-01T18:53:57;14.80;;;4.03;;
77280;SDS011;66339;47.262;17.144;2023-04-01T18:56:38;13.55;;;4.00;;
77280;SDS011;66339;47.262;17.144;2023-04-01T19:07:52;11.75;;;3.40;;
77280;SDS011;66339;47.262;17.144;2023-04-01T19:15:44;11.27;;;3.55;;
77280;SDS011;66339;47.262;17.144;2023-04-01T19:18:32;15.85;;;3.80;;
77280;SDS011;66339;47.262;17.144;2023-04-01T19:35:17;15.00;;;3.58;;
77280;SDS011;66339;47.262;17.144;2023-04-01T19:49:22;13.48;;;3.72;;
77280;SDS011;66339;47.262;17.144;2023-04-01T19:52:14;15.05;;;3.62;;
77280;SDS011;66339;47.262;17.144;2023-04-01T20:03:38;13.43;;;3.62;;
77280;SDS011;66339;47.262;17.144;2023-04-01T20:06:16;10.75;;;3.15;;
77280;SDS011;66339;47.262;17.144;2023-04-01T20:11:50;17.60;;;3.67;;
77280;SDS011;66339;47.262;17.144;2023-04-01T20:14:46;14.20;;;3.58;;
77280;SDS011;66339;47.262;17.144;2023-04-01T20:17:18;13.57;;;3.60;;
77280;SDS011;66339;47.262;17.144;2023-04-01T20:19:53;12.70;;;2.87;;
77280;SDS011;66339;47.262;17.144;2023-04-01T20:25:22;13.57;;;2.92;;
77280;SDS011;66339;47.262;17.144;2023-04-01T20:31:20;14.57;;;2.97;;
77280;SDS011;66339;47.262;17.144;2023-04-01T20:45:30;13.90;;;2.78;;
77280;SDS011;66339;47.262;17.144;2023-04-01T20:50:50;15.45;;;2.95;;
77280;SDS011;66339;47.262;17.144;2023-04-01T20:53:20;8.38;;;2.78;;
77280;SDS011;66339;47.262;17.144;2023-04-01T21:01:30;9.95;;;3.00;;
77280;SDS011;66339;47.262;17.144;2023-04-01T21:04:08;11.95;;;3.17;;
77280;SDS011;66339;47.262;17.144;2023-04-01T21:12:30;15.50;;;2.67;;
77280;SDS011;66339;47.262;17.144;2023-04-01T21:15:21;15.23;;;2.53;;
77280;SDS011;66339;47.262;17.144;2023-04-01T21:18:00;12.82;;;3.37;;
77280;SDS011;66339;47.262;17.144;2023-04-01T21:31:53;11.32;;;2.72;;
77280;SDS011;66339;47.262;17.144;2023-04-01T21:40:24;11.95;;;2.78;;
77280;SDS011;66339;47.262;17.144;2023-04-01T21:57:55;8.82;;;2.50;;
77280;SDS011;66339;47.262;17.144;2023-04-01T22:00:40;13.80;;;2.85;;
77280;SDS011;66339;47.262;17.144;2023-04-01T22:06:34;11.18;;;2.45;;
77280;SDS011;66339;47.262;17.144;2023-04-01T22:14:55;10.82;;;2.15;;
77280;SDS011;66339;47.262;17.144;2023-04-01T22:20:46;12.48;;;2.33;;
77280;SDS011;66339;47.262;17.144;2023-04-01T22:23:36;9.15;;;2.50;;
77280;SDS011;66339;47.262;17.144;2023-04-01T22:27:07;7.97;;;2.05;;
77280;SDS011;66339;47.262;17.144;2023-04-01T22:43:58;9.45;;;2.28;;
77280;SDS011;66339;47.262;17.144;2023-04-01T22:46:49;8.80;;;1.90;;
77280;SDS011;66339;47.262;17.144;2023-04-01T22:49:38;6.37;;;2.17;;
77280;SDS011;66339;47.262;17.144;2023-04-01T22:52:18;6.95;;;2.03;;
77280;SDS011;66339;47.262;17.144;2023-04-01T22:54:58;4.32;;;1.73;;
77280;SDS011;66339;47.262;17.144;2023-04-01T22:58:08;5.82;;;2.25;;
77280;SDS011;66339;47.262;17.144;2023-04-01T23:03:22;6.55;;;2.20;;
77280;SDS011;66339;47.262;17.144;2023-04-01T23:06:03;5.93;;;1.75;;
77280;SDS011;66339;47.262;17.144;2023-04-01T23:23:33;7.05;;;1.85;;
77280;SDS011;66339;47.262;17.144;2023-04-01T23:29:02;4.78;;;1.90;;
77280;SDS011;66339;47.262;17.144;2023-04-01T23:31:41;4.97;;;1.77;;
77280;SDS011;66339;47.262;17.144;2023-04-01T23:36:45;5.07;;;1.37;;
77280;SDS011;66339;47.262;17.144;2023-04-01T23:39:40;3.30;;;1.70;;
77280;SDS011;66339;47.262;17.144;2023-04-01T23:42:19;3.30;;;1.40;;
77280;SDS011;66339;47.262;17.144;2023-04-01T23:45:04;4.87;;;2.03;;
77280;SDS011;66339;47.262;17.144;2023-04-01T23:47:48;4.37;;;1.60;;
77280;SDS011;66339;47.262;17.144;2023-04-01T23:50:25;5.62;;;1.80;;
77280;SDS011;66339;47.262;17.144;2023-04-01T23:53:02;6.57;;;2.40;;
77280;SDS011;66339;47.262;17.144;2023-04-01T23:55:31;4.35;;;1.65;;
